createdAt,value
2022-08-12T00:00:01.766Z,25.22
2022-08-12T00:02:47.245Z,25.07
2022-08-12T00:05:35.204Z,25.07
2022-08-12T00:08:28.949Z,25.14
2022-08-12T00:11:22.250Z,25.20
2022-08-12T00:14:07.663Z,24.91
2022-08-12T00:16:53.482Z,24.62
2022-08-12T00:19:38.815Z,24.23
2022-08-12T00:22:24.138Z,24.31
2022-08-12T00:25:17.254Z,24.57
2022-08-12T00:28:03.991Z,24.45
2022-08-12T00:30:49.730Z,24.47
2022-08-12T00:33:51.634Z,24.36
2022-08-12T00:36:43.738Z,24.38
2022-08-12T00:39:30.713Z,24.49
2022-08-12T00:42:11.117Z,24.46
2022-08-12T00:44:41.126Z,24.13
2022-08-12T00:47:24.574Z,24.02
2022-08-12T00:49:54.800Z,23.78
2022-08-12T00:52:24.248Z,23.73
2022-08-12T00:54:54.392Z,23.68
2022-08-12T00:57:26.562Z,23.69
2022-08-12T00:59:58.276Z,23.39
2022-08-12T01:02:28.889Z,23.21
2022-08-12T01:05:16.330Z,23.13
2022-08-12T01:08:02.801Z,22.89
2022-08-12T01:10:51.145Z,22.85
2022-08-12T01:13:22.147Z,22.92
2022-08-12T01:15:53.321Z,23.07
2022-08-12T01:18:23.354Z,23.09
2022-08-12T01:21:00.736Z,23.06
2022-08-12T01:24:29.455Z,23.10
2022-08-12T01:26:56.981Z,23.03
2022-08-12T01:29:28.614Z,22.98
2022-08-12T01:32:05.139Z,22.96
2022-08-12T01:34:37.454Z,22.95
2022-08-12T01:37:08.229Z,22.91
2022-08-12T01:40:36.250Z,22.86
2022-08-12T01:42:34.923Z,22.78
2022-08-12T01:45:06.281Z,22.71
2022-08-12T01:47:43.058Z,22.60
2022-08-12T01:50:21.899Z,22.73
2022-08-12T01:52:59.077Z,22.73
2022-08-12T01:55:29.733Z,22.69
2022-08-12T01:58:11.611Z,22.48
2022-08-12T02:00:54.802Z,22.49
2022-08-12T02:04:02.408Z,22.32
2022-08-12T02:06:52.955Z,22.24
2022-08-12T02:09:47.491Z,22.25
2022-08-12T02:12:27.918Z,22.20
2022-08-12T02:15:22.177Z,22.06
2022-08-12T02:17:57.053Z,21.87
2022-08-12T02:20:48.873Z,21.73
2022-08-12T02:23:21.559Z,21.54
2022-08-12T02:25:55.527Z,21.47
2022-08-12T02:28:23.678Z,21.46
2022-08-12T02:30:53.585Z,21.42
2022-08-12T02:33:22.474Z,21.30
2022-08-12T02:35:51.556Z,21.37
2022-08-12T02:38:21.263Z,21.43
2022-08-12T02:40:54.267Z,21.44
2022-08-12T02:43:28.214Z,21.46
2022-08-12T02:46:01.874Z,21.37
2022-08-12T02:48:32.246Z,21.43
2022-08-12T02:51:05.278Z,21.50
2022-08-12T02:53:34.291Z,21.59
2022-08-12T02:56:03.790Z,21.53
2022-08-12T02:58:33.361Z,21.39
2022-08-12T03:01:05.445Z,21.34
2022-08-12T03:03:35.338Z,21.31
2022-08-12T03:06:08.186Z,21.32
2022-08-12T03:08:41.128Z,21.30
2022-08-12T03:11:16.409Z,21.22
2022-08-12T03:13:52.907Z,21.06
2022-08-12T03:16:22.335Z,20.87
2022-08-12T03:18:51.543Z,20.88
2022-08-12T03:21:55.484Z,20.70
2022-08-12T03:24:09.510Z,20.61
2022-08-12T03:26:38.506Z,20.54
2022-08-12T03:29:07.800Z,20.50
2022-08-12T03:31:36.955Z,20.53
2022-08-12T03:34:07.576Z,20.54
2022-08-12T03:36:37.397Z,20.57
2022-08-12T03:39:35.914Z,20.59
2022-08-12T03:42:14.702Z,20.56
2022-08-12T03:45:11.540Z,20.59
2022-08-12T03:48:13.311Z,20.59
2022-08-12T03:51:05.400Z,20.63
2022-08-12T03:53:50.877Z,20.57
2022-08-12T03:56:36.163Z,20.48
2022-08-12T03:59:24.506Z,20.34
2022-08-12T04:01:57.207Z,20.30
2022-08-12T04:04:33.910Z,20.27
2022-08-12T04:07:03.332Z,20.28
2022-08-12T04:09:31.809Z,20.22
2022-08-12T04:12:17.105Z,20.26
2022-08-12T04:14:45.459Z,20.29
2022-08-12T04:17:14.367Z,20.32
2022-08-12T04:19:43.919Z,20.29
2022-08-12T04:22:12.500Z,20.24
2022-08-12T04:24:41.605Z,20.03
2022-08-12T04:27:11.203Z,19.80
2022-08-12T04:30:21.052Z,19.77
2022-08-12T04:32:28.149Z,19.88
2022-08-12T04:34:57.349Z,19.90
2022-08-12T04:37:25.104Z,19.99
2022-08-12T04:39:54.106Z,19.77
2022-08-12T04:42:22.125Z,19.71
2022-08-12T04:44:49.923Z,19.75
2022-08-12T04:47:18.416Z,19.63
2022-08-12T04:49:48.089Z,19.56
2022-08-12T04:52:17.950Z,19.47
2022-08-12T04:54:46.254Z,19.16
2022-08-12T04:57:14.000Z,19.13
2022-08-12T04:59:47.750Z,18.95
2022-08-12T05:02:21.515Z,18.77
2022-08-12T05:04:52.722Z,19.06
2022-08-12T05:07:24.141Z,19.26
2022-08-12T05:10:00.161Z,19.34
2022-08-12T05:12:34.288Z,19.23
2022-08-12T05:15:01.942Z,19.26
2022-08-12T05:17:29.689Z,19.42
2022-08-12T05:19:58.150Z,19.57
2022-08-12T05:22:27.634Z,19.59
2022-08-12T05:24:55.793Z,19.49
2022-08-12T05:27:23.644Z,19.62
2022-08-12T05:30:05.621Z,19.68
2022-08-12T05:32:37.425Z,19.84
2022-08-12T05:35:08.172Z,19.88
2022-08-12T05:37:37.610Z,19.85
2022-08-12T05:40:10.986Z,19.88
2022-08-12T05:42:38.987Z,20.06
2022-08-12T05:45:08.001Z,20.27
2022-08-12T05:47:53.619Z,20.58
2022-08-12T05:50:22.310Z,20.81
2022-08-12T05:52:53.851Z,20.99
2022-08-12T05:55:24.185Z,21.08
2022-08-12T05:57:55.321Z,21.23
2022-08-12T06:00:25.460Z,21.36
2022-08-12T06:02:56.435Z,21.44
2022-08-12T06:05:24.585Z,21.47
2022-08-12T06:08:02.328Z,21.57
2022-08-12T06:10:32.916Z,21.67
2022-08-12T06:13:02.519Z,21.73
2022-08-12T06:15:31.388Z,21.73
2022-08-12T06:18:13.792Z,21.81
2022-08-12T06:20:43.826Z,21.76
2022-08-12T06:23:15.277Z,22.03
2022-08-12T06:25:43.556Z,22.18
2022-08-12T06:28:17.434Z,22.32
2022-08-12T06:30:53.056Z,22.38
2022-08-12T06:33:55.345Z,22.42
2022-08-12T06:36:22.656Z,22.42
2022-08-12T06:38:52.414Z,22.54
2022-08-12T06:41:37.815Z,22.58
2022-08-12T06:44:08.994Z,22.73
2022-08-12T06:46:38.687Z,22.91
2022-08-12T06:49:06.844Z,23.04
2022-08-12T06:51:34.738Z,23.21
2022-08-12T06:54:04.077Z,23.32
2022-08-12T06:57:02.403Z,23.54
2022-08-12T06:59:21.185Z,23.75
2022-08-12T07:01:51.186Z,24.00
2022-08-12T07:04:37.378Z,24.26
2022-08-12T07:07:07.123Z,24.54
2022-08-12T07:10:04.157Z,24.68
2022-08-12T07:12:26.598Z,24.93
2022-08-12T07:14:56.675Z,25.07
2022-08-12T07:17:24.460Z,25.18
2022-08-12T07:19:53.745Z,25.31
2022-08-12T07:22:23.272Z,25.44
2022-08-12T07:25:12.598Z,25.68
2022-08-12T07:27:42.573Z,25.89
2022-08-12T07:30:11.679Z,26.07
2022-08-12T07:32:40.239Z,26.31
2022-08-12T07:35:08.798Z,26.46
2022-08-12T07:37:42.582Z,26.65
2022-08-12T07:40:13.254Z,26.84
2022-08-12T07:42:43.593Z,27.04
2022-08-12T07:45:13.538Z,27.22
2022-08-12T07:47:43.219Z,27.32
2022-08-12T07:50:11.878Z,27.64
2022-08-12T07:52:42.639Z,27.74
2022-08-12T07:55:13.024Z,27.97
2022-08-12T07:57:52.034Z,28.18
2022-08-12T08:00:20.769Z,28.21
2022-08-12T08:02:49.295Z,28.49
2022-08-12T08:05:17.535Z,28.69
2022-08-12T08:07:45.293Z,28.75
2022-08-12T08:10:16.637Z,28.96
2022-08-12T08:12:56.278Z,29.02
2022-08-12T08:15:44.523Z,29.15
2022-08-12T08:18:26.654Z,29.33
2022-08-12T08:20:56.299Z,29.56
2022-08-12T08:23:46.367Z,29.68
2022-08-12T08:26:16.393Z,29.89
2022-08-12T08:28:44.304Z,29.82
2022-08-12T08:31:13.420Z,29.80
2022-08-12T08:34:09.140Z,30.05
2022-08-12T08:36:29.605Z,30.39
2022-08-12T08:38:58.539Z,30.52
2022-08-12T08:42:15.317Z,30.51
2022-08-12T08:44:36.362Z,30.56
2022-08-12T08:47:05.572Z,30.65
2022-08-12T08:49:37.446Z,30.80
2022-08-12T08:52:07.122Z,30.93
2022-08-12T08:54:35.095Z,31.07
2022-08-12T08:57:07.962Z,31.18
2022-08-12T08:59:36.031Z,31.41
2022-08-12T09:02:03.891Z,31.44
2022-08-12T09:05:12.244Z,31.54
2022-08-12T09:07:58.972Z,31.55
2022-08-12T09:13:23.198Z,31.83
2022-08-12T09:15:55.854Z,32.07
2022-08-12T09:18:33.311Z,32.05
2022-08-12T09:21:02.780Z,32.19
2022-08-12T09:26:22.762Z,32.33
2022-08-12T09:28:58.071Z,32.21
2022-08-12T09:32:06.831Z,32.08
2022-08-12T09:34:25.933Z,32.10
2022-08-12T09:37:00.376Z,32.29
2022-08-12T09:40:01.670Z,32.21
2022-08-12T09:42:44.634Z,32.32
2022-08-12T09:46:05.500Z,32.37
2022-08-12T09:48:19.984Z,32.54
2022-08-12T09:50:52.185Z,32.83
2022-08-12T09:53:36.187Z,32.88
2022-08-12T09:56:59.257Z,32.99
2022-08-12T09:59:00.110Z,32.74
2022-08-12T10:01:35.380Z,32.70
2022-08-12T10:04:19.679Z,32.64
2022-08-12T10:06:54.690Z,32.96
2022-08-12T10:09:28.451Z,33.15
2022-08-12T10:12:31.626Z,33.04
2022-08-12T10:15:01.205Z,32.97
2022-08-12T10:17:30.748Z,32.97
2022-08-12T10:19:59.781Z,33.06
2022-08-12T10:22:36.463Z,32.89
2022-08-12T10:26:18.426Z,32.81
2022-08-12T10:28:32.072Z,33.15
2022-08-12T10:30:59.843Z,33.27
2022-08-12T10:33:32.364Z,33.20
2022-08-12T10:36:01.820Z,33.28
2022-08-12T10:38:36.134Z,33.16
2022-08-12T10:41:56.927Z,33.17
2022-08-12T10:44:17.493Z,33.47
2022-08-12T10:46:49.076Z,33.50
2022-08-12T10:50:03.268Z,33.83
2022-08-12T10:52:34.597Z,33.69
2022-08-12T10:54:56.444Z,33.66
2022-08-12T10:58:13.018Z,33.63
2022-08-12T11:00:34.631Z,33.81
2022-08-12T11:04:22.338Z,33.74
2022-08-12T11:07:09.012Z,33.81
2022-08-12T11:08:42.949Z,33.77
2022-08-12T11:11:27.794Z,33.90
2022-08-12T11:14:05.669Z,33.61
2022-08-12T11:16:33.863Z,33.73
2022-08-12T11:19:03.206Z,33.67
2022-08-12T11:21:57.794Z,33.65
2022-08-12T11:24:30.310Z,33.97
2022-08-12T11:27:07.462Z,33.94
2022-08-12T11:30:01.868Z,34.11
2022-08-12T11:32:25.298Z,34.28
2022-08-12T11:34:55.141Z,34.61
2022-08-12T11:37:26.287Z,34.59
2022-08-12T11:42:35.204Z,34.53
2022-08-12T11:45:03.885Z,34.52
2022-08-12T11:47:32.913Z,34.74
2022-08-12T11:50:01.312Z,35.01
2022-08-12T11:52:55.981Z,35.13
2022-08-12T11:55:18.630Z,35.25
2022-08-12T11:58:40.645Z,35.42
2022-08-12T12:03:40.418Z,35.48
2022-08-12T12:06:16.864Z,35.53
2022-08-12T12:08:51.598Z,35.61
2022-08-12T12:11:21.814Z,35.26
2022-08-12T12:14:08.774Z,35.38
2022-08-12T12:16:39.584Z,35.52
2022-08-12T12:19:10.052Z,35.63
2022-08-12T12:21:46.999Z,35.77
2022-08-12T12:24:21.237Z,35.86
2022-08-12T12:27:00.133Z,35.93
2022-08-12T12:30:19.725Z,35.90
2022-08-12T12:32:18.636Z,35.92
2022-08-12T12:35:14.054Z,35.75
2022-08-12T12:38:04.999Z,35.93
2022-08-12T12:40:29.934Z,35.50
2022-08-12T12:43:00.504Z,36.29
2022-08-12T12:45:33.241Z,36.15
2022-08-12T12:48:02.976Z,36.55
2022-08-12T12:50:35.780Z,36.25
2022-08-12T12:54:05.753Z,36.29
2022-08-12T12:56:01.785Z,36.42
2022-08-12T12:58:29.559Z,36.48
2022-08-12T13:01:04.621Z,36.99
2022-08-12T13:03:48.694Z,37.25
2022-08-12T13:06:19.079Z,36.56
2022-08-12T13:08:48.940Z,36.82
2022-08-12T13:11:21.186Z,36.83
2022-08-12T13:14:06.972Z,36.51
2022-08-12T13:16:43.957Z,36.91
2022-08-12T13:19:12.362Z,37.25
2022-08-12T13:22:03.888Z,37.37
2022-08-12T13:24:33.477Z,37.30
2022-08-12T13:27:02.606Z,36.99
2022-08-12T13:29:32.894Z,37.27
2022-08-12T13:32:18.564Z,37.43
2022-08-12T13:34:52.714Z,36.74
2022-08-12T13:37:43.645Z,36.97
2022-08-12T13:40:19.659Z,37.25
2022-08-12T13:42:51.084Z,37.53
2022-08-12T13:45:18.936Z,37.45
2022-08-12T13:47:55.938Z,37.68
2022-08-12T13:50:26.746Z,37.23
2022-08-12T13:52:54.592Z,37.69
2022-08-12T13:55:30.767Z,38.18
2022-08-12T13:58:01.713Z,37.79
2022-08-12T14:00:34.019Z,37.31
2022-08-12T14:03:06.348Z,37.61
2022-08-12T14:05:38.968Z,37.26
2022-08-12T14:08:08.523Z,36.95
2022-08-12T14:10:38.862Z,37.42
2022-08-12T14:14:04.174Z,37.57
2022-08-12T14:16:14.376Z,37.73
2022-08-12T14:18:44.814Z,37.88
2022-08-12T14:21:18.398Z,38.04
2022-08-12T14:24:01.990Z,37.50
2022-08-12T14:26:33.663Z,37.10
2022-08-12T14:29:02.766Z,37.29
2022-08-12T14:31:31.775Z,37.80
2022-08-12T14:34:00.344Z,37.95
2022-08-12T14:36:32.978Z,37.32
2022-08-12T14:39:06.065Z,37.53
2022-08-12T14:41:36.470Z,37.32
2022-08-12T14:44:58.120Z,37.18
2022-08-12T14:46:56.906Z,37.02
2022-08-12T14:50:01.182Z,37.14
2022-08-12T14:53:23.997Z,37.12
2022-08-12T14:57:56.882Z,37.10
2022-08-12T15:00:52.577Z,36.90
2022-08-12T15:03:23.187Z,36.57
2022-08-12T15:06:05.058Z,36.58
2022-08-12T15:08:40.975Z,37.41
2022-08-12T15:11:13.599Z,37.85
2022-08-12T15:13:45.415Z,37.62
2022-08-12T15:16:18.703Z,36.88
2022-08-12T15:18:54.958Z,37.02
2022-08-12T15:21:25.221Z,36.87
2022-08-12T15:24:12.921Z,36.66
2022-08-12T15:26:42.348Z,37.20
2022-08-12T15:29:10.560Z,37.16
2022-08-12T15:31:59.846Z,36.99
2022-08-12T15:34:30.876Z,37.04
2022-08-12T15:36:58.696Z,36.90
2022-08-12T15:39:27.926Z,36.80
2022-08-12T15:41:56.750Z,36.86
2022-08-12T15:44:38.109Z,36.86
2022-08-12T15:47:10.911Z,36.50
2022-08-12T15:49:54.861Z,36.27
2022-08-12T15:52:28.377Z,36.48
2022-08-12T15:54:58.785Z,36.72
2022-08-12T15:57:27.136Z,36.65
2022-08-12T16:00:04.603Z,37.02
2022-08-12T16:02:49.412Z,36.90
2022-08-12T16:06:13.211Z,37.13
2022-08-12T16:08:17.107Z,37.22
2022-08-12T16:10:46.492Z,36.82
2022-08-12T16:13:18.218Z,36.49
2022-08-12T16:16:03.279Z,36.50
2022-08-12T16:18:35.575Z,36.60
2022-08-12T16:21:04.904Z,36.52
2022-08-12T16:23:52.093Z,36.54
2022-08-12T16:26:27.316Z,36.11
2022-08-12T16:29:14.669Z,36.11
2022-08-12T16:31:42.644Z,36.40
2022-08-12T16:34:39.966Z,36.44
2022-08-12T16:37:07.274Z,36.29
2022-08-12T16:39:59.792Z,36.19
2022-08-12T16:42:28.189Z,36.03
2022-08-12T16:44:57.442Z,36.04
2022-08-12T16:47:27.170Z,35.62
2022-08-12T16:49:57.839Z,36.10
2022-08-12T16:52:25.669Z,36.19
2022-08-12T16:54:54.880Z,35.63
2022-08-12T16:57:34.898Z,35.82
2022-08-12T17:00:04.481Z,35.86
2022-08-12T17:02:35.353Z,35.81
2022-08-12T17:05:05.615Z,35.78
2022-08-12T17:07:38.169Z,35.71
2022-08-12T17:10:12.881Z,35.45
2022-08-12T17:12:40.938Z,35.63
2022-08-12T17:15:51.000Z,35.31
2022-08-12T17:18:39.398Z,35.27
2022-08-12T17:20:49.250Z,35.54
2022-08-12T17:23:19.337Z,35.14
2022-08-12T17:25:50.368Z,35.30
2022-08-12T17:28:19.920Z,35.33
2022-08-12T17:30:59.461Z,35.30
2022-08-12T17:33:33.421Z,35.40
2022-08-12T17:36:05.793Z,35.16
2022-08-12T17:38:35.052Z,35.27
2022-08-12T17:41:21.537Z,35.28
2022-08-12T17:43:58.526Z,35.08
2022-08-12T17:46:32.175Z,34.72
2022-08-12T17:49:06.901Z,34.94
2022-08-12T17:52:02.903Z,35.04
2022-08-12T17:54:31.474Z,34.69
2022-08-12T17:57:01.379Z,34.63
2022-08-12T17:59:48.587Z,34.42
2022-08-12T18:02:30.041Z,34.36
2022-08-12T18:05:09.440Z,34.31
2022-08-12T18:07:39.906Z,34.15
2022-08-12T18:10:09.050Z,34.06
2022-08-12T18:12:47.151Z,33.86
2022-08-12T18:15:26.792Z,33.82
2022-08-12T18:18:17.478Z,33.78
2022-08-12T18:20:47.622Z,33.70
2022-08-12T18:23:24.401Z,33.68
2022-08-12T18:26:17.559Z,33.62
2022-08-12T18:28:48.329Z,33.32
2022-08-12T18:31:18.172Z,33.28
2022-08-12T18:33:47.221Z,33.04
2022-08-12T18:36:22.429Z,33.09
2022-08-12T18:38:56.084Z,33.04
2022-08-12T18:41:32.080Z,32.94
2022-08-12T18:44:05.317Z,32.81
2022-08-12T18:46:53.471Z,32.84
2022-08-12T18:49:30.372Z,32.54
2022-08-12T18:52:04.341Z,32.34
2022-08-12T18:54:37.472Z,32.19
2022-08-12T18:57:19.975Z,32.20
2022-08-12T19:00:07.002Z,32.18
2022-08-12T19:02:40.371Z,32.16
2022-08-12T19:05:10.900Z,31.95
2022-08-12T19:07:58.099Z,31.87
2022-08-12T19:10:31.929Z,31.71
2022-08-12T19:13:23.836Z,31.74
2022-08-12T19:15:53.364Z,31.52
2022-08-12T19:18:22.083Z,31.38
2022-08-12T19:20:50.707Z,31.34
2022-08-12T19:23:21.308Z,30.95
2022-08-12T19:26:01.024Z,31.10
2022-08-12T19:28:35.205Z,31.02
2022-08-12T19:31:56.444Z,31.09
2022-08-12T19:37:18.342Z,30.73
2022-08-12T19:40:09.017Z,30.78
2022-08-12T19:42:41.838Z,30.72
2022-08-12T19:45:14.810Z,30.64
2022-08-12T19:47:44.733Z,30.38
2022-08-12T19:50:14.807Z,30.47
2022-08-12T19:52:53.055Z,30.14
2022-08-12T19:55:23.256Z,30.11
2022-08-12T19:58:02.396Z,30.17
2022-08-12T20:00:35.910Z,29.84
2022-08-12T20:03:06.222Z,30.02
2022-08-12T20:06:04.905Z,29.82
2022-08-12T20:08:31.472Z,29.74
2022-08-12T20:12:12.661Z,29.74
2022-08-12T20:14:00.644Z,29.68
2022-08-12T20:16:53.227Z,29.53
2022-08-12T20:19:17.666Z,29.36
2022-08-12T20:21:45.661Z,29.40
2022-08-12T20:24:14.790Z,29.32
2022-08-12T20:26:43.662Z,29.34
2022-08-12T20:29:14.501Z,29.33
2022-08-12T20:31:44.809Z,29.16
2022-08-12T20:34:12.727Z,29.06
2022-08-12T20:36:44.254Z,28.97
2022-08-12T20:39:37.394Z,28.98
2022-08-12T20:42:07.807Z,28.75
2022-08-12T20:44:39.904Z,28.89
2022-08-12T20:47:17.900Z,28.78
2022-08-12T20:49:55.363Z,28.64
2022-08-12T20:52:29.055Z,28.54
2022-08-12T20:54:58.301Z,28.44
2022-08-12T20:57:37.432Z,28.44
2022-08-12T21:00:17.986Z,28.43
2022-08-12T21:02:50.579Z,28.47
2022-08-12T21:06:09.458Z,28.35
2022-08-12T21:08:26.522Z,28.30
2022-08-12T21:10:59.174Z,28.06
2022-08-12T21:13:29.469Z,28.18
2022-08-12T21:16:10.007Z,28.27
2022-08-12T21:18:38.378Z,28.35
2022-08-12T21:21:06.728Z,28.33
2022-08-12T21:23:50.799Z,28.35
2022-08-12T21:26:19.737Z,28.39
2022-08-12T21:28:58.382Z,28.37
2022-08-12T21:32:40.335Z,28.29
2022-08-12T21:34:21.413Z,28.13
2022-08-12T21:36:53.863Z,28.18
2022-08-12T21:39:27.827Z,28.21
2022-08-12T21:42:06.975Z,28.31
2022-08-12T21:45:47.216Z,28.24
2022-08-12T21:47:26.339Z,28.20
2022-08-12T21:50:02.983Z,28.08
2022-08-12T21:52:35.841Z,27.91
2022-08-12T21:55:08.310Z,27.85
2022-08-12T21:57:51.152Z,27.56
2022-08-12T22:00:32.364Z,27.31
2022-08-12T22:04:01.794Z,27.18
2022-08-12T22:06:30.547Z,27.11
2022-08-12T22:09:16.078Z,27.10
2022-08-12T22:11:49.032Z,27.15
2022-08-12T22:14:24.592Z,27.02
2022-08-12T22:16:55.667Z,26.94
2022-08-12T22:19:24.975Z,26.87
2022-08-12T22:21:56.281Z,26.76
2022-08-12T22:24:29.965Z,26.71
2022-08-12T22:26:59.654Z,26.69
2022-08-12T22:30:03.761Z,26.47
2022-08-12T22:32:31.534Z,26.28
2022-08-12T22:35:22.238Z,26.18
2022-08-12T22:37:53.590Z,26.14
2022-08-12T22:40:23.983Z,25.97
2022-08-12T22:43:15.595Z,25.94
2022-08-12T22:46:01.427Z,25.94
2022-08-12T22:48:29.177Z,25.93
2022-08-12T22:51:00.069Z,25.91
2022-08-12T22:53:36.278Z,25.83
2022-08-12T22:56:06.841Z,25.75
2022-08-12T22:58:40.197Z,25.69
2022-08-12T23:01:10.658Z,25.74
2022-08-12T23:03:47.143Z,25.80
2022-08-12T23:06:19.803Z,25.82
2022-08-12T23:08:48.371Z,25.85
2022-08-12T23:11:17.141Z,25.82
2022-08-12T23:13:49.062Z,25.70
2022-08-12T23:16:28.848Z,25.62
2022-08-12T23:19:09.367Z,25.60
2022-08-12T23:22:04.870Z,25.57
2022-08-12T23:24:35.378Z,25.50
2022-08-12T23:27:21.752Z,25.54
2022-08-12T23:30:17.555Z,25.38
2022-08-12T23:32:37.737Z,25.19
2022-08-12T23:35:07.848Z,25.08
2022-08-12T23:37:47.196Z,25.06
2022-08-12T23:40:22.288Z,25.10
2022-08-12T23:42:54.854Z,25.03
2022-08-12T23:45:33.780Z,24.98
2022-08-12T23:48:03.001Z,24.93
2022-08-12T23:50:34.289Z,24.97
2022-08-12T23:53:06.671Z,24.92
2022-08-12T23:55:45.584Z,24.86
2022-08-12T23:58:21.222Z,24.84
